sensor_id;sensor_type;location;lat;lon;timestamp;P1;durP1;ratioP1;P2;durP2;ratioP2
85093;SDS011;75432;49.056;12.004;2024-03-07T00:01:39;46.07;;;22.40;;
85093;SDS011;75432;49.056;12.004;2024-03-07T00:04:06;40.83;;;21.27;;
85093;SDS011;75432;49.056;12.004;2024-03-07T00:06:32;43.50;;;21.07;;
85093;SDS011;75432;49.056;12.004;2024-03-07T00:08:59;41.10;;;19.83;;
85093;SDS011;75432;49.056;12.004;2024-03-07T00:11:26;43.63;;;21.27;;
85093;SDS011;75432;49.056;12.004;2024-03-07T00:13:52;44.33;;;21.07;;
85093;SDS011;75432;49.056;12.004;2024-03-07T00:16:19;43.77;;;20.53;;
85093;SDS011;75432;49.056;12.004;2024-03-07T00:18:46;38.27;;;20.27;;
85093;SDS011;75432;49.056;12.004;2024-03-07T00:21:13;40.83;;;21.13;;
85093;SDS011;75432;49.056;12.004;2024-03-07T00:23:40;43.60;;;22.63;;
85093;SDS011;75432;49.056;12.004;2024-03-07T00:26:06;47.63;;;22.43;;
85093;SDS011;75432;49.056;12.004;2024-03-07T00:28:34;41.47;;;20.40;;
85093;SDS011;75432;49.056;12.004;2024-03-07T00:31:05;41.00;;;20.73;;
85093;SDS011;75432;49.056;12.004;2024-03-07T00:33:33;39.53;;;20.27;;
85093;SDS011;75432;49.056;12.004;2024-03-07T00:36:19;47.33;;;22.27;;
85093;SDS011;75432;49.056;12.004;2024-03-07T00:38:47;38.37;;;19.47;;
85093;SDS011;75432;49.056;12.004;2024-03-07T00:41:15;42.27;;;21.13;;
85093;SDS011;75432;49.056;12.004;2024-03-07T00:43:43;43.87;;;21.47;;
85093;SDS011;75432;49.056;12.004;2024-03-07T00:46:09;44.03;;;20.97;;
85093;SDS011;75432;49.056;12.004;2024-03-07T00:48:37;44.33;;;20.17;;
85093;SDS011;75432;49.056;12.004;2024-03-07T00:51:04;46.00;;;21.43;;
85093;SDS011;75432;49.056;12.004;2024-03-07T00:53:30;37.30;;;17.90;;
85093;SDS011;75432;49.056;12.004;2024-03-07T00:55:58;38.10;;;20.07;;
85093;SDS011;75432;49.056;12.004;2024-03-07T00:58:25;41.90;;;19.93;;
85093;SDS011;75432;49.056;12.004;2024-03-07T01:00:51;42.27;;;21.40;;
85093;SDS011;75432;49.056;12.004;2024-03-07T01:03:21;41.47;;;21.10;;
85093;SDS011;75432;49.056;12.004;2024-03-07T01:05:48;43.50;;;20.80;;
85093;SDS011;75432;49.056;12.004;2024-03-07T01:08:14;42.73;;;20.47;;
85093;SDS011;75432;49.056;12.004;2024-03-07T01:10:41;43.57;;;20.53;;
85093;SDS011;75432;49.056;12.004;2024-03-07T01:13:09;40.97;;;20.03;;
85093;SDS011;75432;49.056;12.004;2024-03-07T01:15:45;35.10;;;17.67;;
85093;SDS011;75432;49.056;12.004;2024-03-07T01:18:11;44.77;;;20.43;;
85093;SDS011;75432;49.056;12.004;2024-03-07T01:20:39;41.37;;;20.37;;
85093;SDS011;75432;49.056;12.004;2024-03-07T01:23:06;37.33;;;19.33;;
85093;SDS011;75432;49.056;12.004;2024-03-07T01:25:34;42.17;;;21.33;;
85093;SDS011;75432;49.056;12.004;2024-03-07T01:28:01;42.57;;;20.60;;
85093;SDS011;75432;49.056;12.004;2024-03-07T01:30:27;39.43;;;19.90;;
85093;SDS011;75432;49.056;12.004;2024-03-07T01:32:57;43.47;;;21.30;;
85093;SDS011;75432;49.056;12.004;2024-03-07T01:35:23;42.93;;;21.70;;
85093;SDS011;75432;49.056;12.004;2024-03-07T01:37:50;43.93;;;21.43;;
85093;SDS011;75432;49.056;12.004;2024-03-07T01:40:16;44.47;;;21.10;;
85093;SDS011;75432;49.056;12.004;2024-03-07T01:42:43;44.70;;;21.93;;
85093;SDS011;75432;49.056;12.004;2024-03-07T01:45:14;41.03;;;19.80;;
85093;SDS011;75432;49.056;12.004;2024-03-07T01:47:40;38.70;;;19.53;;
85093;SDS011;75432;49.056;12.004;2024-03-07T01:50:08;42.57;;;20.77;;
85093;SDS011;75432;49.056;12.004;2024-03-07T01:52:35;43.47;;;20.03;;
85093;SDS011;75432;49.056;12.004;2024-03-07T01:55:02;40.93;;;20.80;;
85093;SDS011;75432;49.056;12.004;2024-03-07T01:57:29;47.73;;;22.70;;
85093;SDS011;75432;49.056;12.004;2024-03-07T01:59:56;48.20;;;23.73;;
85093;SDS011;75432;49.056;12.004;2024-03-07T02:02:23;45.13;;;21.60;;
85093;SDS011;75432;49.056;12.004;2024-03-07T02:04:50;45.03;;;22.03;;
85093;SDS011;75432;49.056;12.004;2024-03-07T02:07:16;42.53;;;20.73;;
85093;SDS011;75432;49.056;12.004;2024-03-07T02:09:43;45.13;;;21.57;;
85093;SDS011;75432;49.056;12.004;2024-03-07T02:12:09;43.47;;;21.60;;
85093;SDS011;75432;49.056;12.004;2024-03-07T02:14:36;50.97;;;24.30;;
85093;SDS011;75432;49.056;12.004;2024-03-07T02:17:03;47.23;;;23.37;;
85093;SDS011;75432;49.056;12.004;2024-03-07T02:19:30;49.83;;;25.00;;
85093;SDS011;75432;49.056;12.004;2024-03-07T02:21:58;47.03;;;23.87;;
85093;SDS011;75432;49.056;12.004;2024-03-07T02:24:25;48.93;;;22.17;;
85093;SDS011;75432;49.056;12.004;2024-03-07T02:26:52;45.40;;;21.70;;
85093;SDS011;75432;49.056;12.004;2024-03-07T02:29:19;44.40;;;22.53;;
85093;SDS011;75432;49.056;12.004;2024-03-07T02:31:45;50.43;;;25.33;;
85093;SDS011;75432;49.056;12.004;2024-03-07T02:34:12;52.57;;;24.37;;
85093;SDS011;75432;49.056;12.004;2024-03-07T02:36:39;47.73;;;25.07;;
85093;SDS011;75432;49.056;12.004;2024-03-07T02:39:05;45.13;;;21.60;;
85093;SDS011;75432;49.056;12.004;2024-03-07T02:41:32;49.13;;;23.60;;
85093;SDS011;75432;49.056;12.004;2024-03-07T02:44:00;47.20;;;24.23;;
85093;SDS011;75432;49.056;12.004;2024-03-07T02:46:29;50.83;;;23.03;;
85093;SDS011;75432;49.056;12.004;2024-03-07T02:48:59;47.73;;;22.77;;
85093;SDS011;75432;49.056;12.004;2024-03-07T02:51:26;48.27;;;23.73;;
85093;SDS011;75432;49.056;12.004;2024-03-07T02:53:53;43.50;;;22.03;;
85093;SDS011;75432;49.056;12.004;2024-03-07T02:56:19;48.73;;;23.07;;
85093;SDS011;75432;49.056;12.004;2024-03-07T02:58:49;45.43;;;21.30;;
85093;SDS011;75432;49.056;12.004;2024-03-07T03:01:15;45.83;;;22.07;;
85093;SDS011;75432;49.056;12.004;2024-03-07T03:03:42;49.83;;;23.30;;
85093;SDS011;75432;49.056;12.004;2024-03-07T03:06:09;50.83;;;24.37;;
85093;SDS011;75432;49.056;12.004;2024-03-07T03:08:37;47.53;;;23.63;;
85093;SDS011;75432;49.056;12.004;2024-03-07T03:11:04;46.63;;;22.93;;
85093;SDS011;75432;49.056;12.004;2024-03-07T03:13:30;45.10;;;22.27;;
85093;SDS011;75432;49.056;12.004;2024-03-07T03:15:58;45.73;;;22.40;;
85093;SDS011;75432;49.056;12.004;2024-03-07T03:18:24;47.77;;;22.83;;
85093;SDS011;75432;49.056;12.004;2024-03-07T03:20:51;54.10;;;26.50;;
85093;SDS011;75432;49.056;12.004;2024-03-07T03:23:19;48.27;;;22.70;;
85093;SDS011;75432;49.056;12.004;2024-03-07T03:25:47;49.27;;;23.50;;
85093;SDS011;75432;49.056;12.004;2024-03-07T03:28:17;48.57;;;22.03;;
85093;SDS011;75432;49.056;12.004;2024-03-07T03:30:46;52.87;;;23.60;;
85093;SDS011;75432;49.056;12.004;2024-03-07T03:33:14;43.87;;;21.77;;
85093;SDS011;75432;49.056;12.004;2024-03-07T03:35:41;47.47;;;21.70;;
85093;SDS011;75432;49.056;12.004;2024-03-07T03:38:08;52.93;;;25.63;;
85093;SDS011;75432;49.056;12.004;2024-03-07T03:40:35;49.70;;;23.30;;
85093;SDS011;75432;49.056;12.004;2024-03-07T03:43:02;41.03;;;20.97;;
85093;SDS011;75432;49.056;12.004;2024-03-07T03:45:29;50.53;;;24.93;;
85093;SDS011;75432;49.056;12.004;2024-03-07T03:47:58;45.80;;;21.93;;
85093;SDS011;75432;49.056;12.004;2024-03-07T03:50:25;49.07;;;24.10;;
85093;SDS011;75432;49.056;12.004;2024-03-07T03:52:52;44.60;;;21.30;;
85093;SDS011;75432;49.056;12.004;2024-03-07T03:55:19;44.00;;;20.63;;
85093;SDS011;75432;49.056;12.004;2024-03-07T03:57:47;50.90;;;22.97;;
85093;SDS011;75432;49.056;12.004;2024-03-07T04:00:17;47.67;;;22.27;;
85093;SDS011;75432;49.056;12.004;2024-03-07T04:02:45;46.17;;;21.93;;
85093;SDS011;75432;49.056;12.004;2024-03-07T04:05:17;43.13;;;21.07;;
85093;SDS011;75432;49.056;12.004;2024-03-07T04:07:45;47.57;;;22.50;;
85093;SDS011;75432;49.056;12.004;2024-03-07T04:10:15;45.23;;;21.70;;
85093;SDS011;75432;49.056;12.004;2024-03-07T04:12:43;40.20;;;21.67;;
85093;SDS011;75432;49.056;12.004;2024-03-07T04:15:11;47.17;;;23.17;;
85093;SDS011;75432;49.056;12.004;2024-03-07T04:17:45;53.77;;;24.70;;
85093;SDS011;75432;49.056;12.004;2024-03-07T04:20:12;49.57;;;23.20;;
85093;SDS011;75432;49.056;12.004;2024-03-07T04:22:40;47.10;;;23.10;;
85093;SDS011;75432;49.056;12.004;2024-03-07T04:25:07;52.07;;;25.70;;
85093;SDS011;75432;49.056;12.004;2024-03-07T04:27:34;49.30;;;24.53;;
85093;SDS011;75432;49.056;12.004;2024-03-07T04:30:03;41.03;;;20.00;;
85093;SDS011;75432;49.056;12.004;2024-03-07T04:32:31;53.63;;;26.10;;
85093;SDS011;75432;49.056;12.004;2024-03-07T04:34:57;48.17;;;22.67;;
85093;SDS011;75432;49.056;12.004;2024-03-07T04:37:24;48.37;;;23.07;;
85093;SDS011;75432;49.056;12.004;2024-03-07T04:39:50;48.43;;;23.53;;
85093;SDS011;75432;49.056;12.004;2024-03-07T04:42:17;45.23;;;22.63;;
85093;SDS011;75432;49.056;12.004;2024-03-07T04:44:44;47.63;;;22.63;;
85093;SDS011;75432;49.056;12.004;2024-03-07T04:47:11;44.10;;;20.83;;
85093;SDS011;75432;49.056;12.004;2024-03-07T04:49:38;44.80;;;21.03;;
85093;SDS011;75432;49.056;12.004;2024-03-07T04:52:07;44.90;;;22.43;;
85093;SDS011;75432;49.056;12.004;2024-03-07T04:54:33;47.93;;;22.40;;
85093;SDS011;75432;49.056;12.004;2024-03-07T04:57:00;49.07;;;22.93;;
85093;SDS011;75432;49.056;12.004;2024-03-07T04:59:27;45.40;;;22.13;;
85093;SDS011;75432;49.056;12.004;2024-03-07T05:01:54;49.00;;;23.23;;
85093;SDS011;75432;49.056;12.004;2024-03-07T05:04:21;44.17;;;20.67;;
85093;SDS011;75432;49.056;12.004;2024-03-07T05:06:50;52.23;;;23.47;;
85093;SDS011;75432;49.056;12.004;2024-03-07T05:09:16;51.10;;;24.63;;
85093;SDS011;75432;49.056;12.004;2024-03-07T05:11:49;52.43;;;24.37;;
85093;SDS011;75432;49.056;12.004;2024-03-07T05:14:19;46.83;;;21.63;;
85093;SDS011;75432;49.056;12.004;2024-03-07T05:16:47;46.10;;;21.67;;
85093;SDS011;75432;49.056;12.004;2024-03-07T05:19:31;41.90;;;20.17;;
85093;SDS011;75432;49.056;12.004;2024-03-07T05:22:02;50.83;;;25.13;;
85093;SDS011;75432;49.056;12.004;2024-03-07T05:24:40;49.50;;;22.63;;
85093;SDS011;75432;49.056;12.004;2024-03-07T05:27:08;44.47;;;21.77;;
85093;SDS011;75432;49.056;12.004;2024-03-07T05:29:37;40.10;;;19.30;;
85093;SDS011;75432;49.056;12.004;2024-03-07T05:32:20;47.43;;;22.03;;
85093;SDS011;75432;49.056;12.004;2024-03-07T05:34:47;49.73;;;22.67;;
85093;SDS011;75432;49.056;12.004;2024-03-07T05:37:14;44.87;;;20.57;;
85093;SDS011;75432;49.056;12.004;2024-03-07T05:39:41;44.57;;;21.27;;
85093;SDS011;75432;49.056;12.004;2024-03-07T05:42:07;45.07;;;20.77;;
85093;SDS011;75432;49.056;12.004;2024-03-07T05:44:34;46.50;;;21.03;;
85093;SDS011;75432;49.056;12.004;2024-03-07T05:47:01;44.77;;;20.57;;
85093;SDS011;75432;49.056;12.004;2024-03-07T05:49:27;45.97;;;21.73;;
85093;SDS011;75432;49.056;12.004;2024-03-07T05:51:57;48.07;;;22.43;;
85093;SDS011;75432;49.056;12.004;2024-03-07T05:54:24;43.30;;;20.17;;
85093;SDS011;75432;49.056;12.004;2024-03-07T05:56:50;38.93;;;18.77;;
85093;SDS011;75432;49.056;12.004;2024-03-07T05:59:17;41.13;;;19.83;;
85093;SDS011;75432;49.056;12.004;2024-03-07T06:01:44;41.43;;;18.77;;
85093;SDS011;75432;49.056;12.004;2024-03-07T06:04:10;40.60;;;18.33;;
85093;SDS011;75432;49.056;12.004;2024-03-07T06:06:37;44.10;;;21.30;;
85093;SDS011;75432;49.056;12.004;2024-03-07T06:09:04;41.57;;;20.77;;
85093;SDS011;75432;49.056;12.004;2024-03-07T06:11:36;45.90;;;21.60;;
85093;SDS011;75432;49.056;12.004;2024-03-07T06:14:05;46.77;;;20.67;;
85093;SDS011;75432;49.056;12.004;2024-03-07T06:16:36;47.53;;;22.03;;
85093;SDS011;75432;49.056;12.004;2024-03-07T06:19:05;36.47;;;18.07;;
85093;SDS011;75432;49.056;12.004;2024-03-07T06:21:37;39.67;;;19.53;;
85093;SDS011;75432;49.056;12.004;2024-03-07T06:24:09;43.93;;;20.10;;
85093;SDS011;75432;49.056;12.004;2024-03-07T06:26:37;44.27;;;20.63;;
85093;SDS011;75432;49.056;12.004;2024-03-07T06:29:16;46.70;;;20.53;;
85093;SDS011;75432;49.056;12.004;2024-03-07T06:31:44;44.37;;;20.33;;
85093;SDS011;75432;49.056;12.004;2024-03-07T06:34:13;39.93;;;18.00;;
85093;SDS011;75432;49.056;12.004;2024-03-07T06:36:40;39.67;;;18.87;;
85093;SDS011;75432;49.056;12.004;2024-03-07T06:39:07;42.87;;;18.27;;
85093;SDS011;75432;49.056;12.004;2024-03-07T06:41:34;41.17;;;19.57;;
85093;SDS011;75432;49.056;12.004;2024-03-07T06:44:01;38.00;;;18.87;;
85093;SDS011;75432;49.056;12.004;2024-03-07T06:46:29;42.50;;;19.70;;
85093;SDS011;75432;49.056;12.004;2024-03-07T06:48:56;42.13;;;19.57;;
85093;SDS011;75432;49.056;12.004;2024-03-07T06:51:23;32.90;;;16.93;;
85093;SDS011;75432;49.056;12.004;2024-03-07T06:53:51;41.47;;;19.80;;
85093;SDS011;75432;49.056;12.004;2024-03-07T06:56:18;40.67;;;20.27;;
85093;SDS011;75432;49.056;12.004;2024-03-07T06:58:44;43.03;;;20.73;;
85093;SDS011;75432;49.056;12.004;2024-03-07T07:01:14;37.47;;;17.70;;
85093;SDS011;75432;49.056;12.004;2024-03-07T07:03:43;41.63;;;20.07;;
85093;SDS011;75432;49.056;12.004;2024-03-07T07:06:10;40.87;;;19.23;;
85093;SDS011;75432;49.056;12.004;2024-03-07T07:08:37;38.40;;;17.13;;
85093;SDS011;75432;49.056;12.004;2024-03-07T07:11:05;36.27;;;16.73;;
85093;SDS011;75432;49.056;12.004;2024-03-07T07:13:32;46.03;;;21.37;;
85093;SDS011;75432;49.056;12.004;2024-03-07T07:15:58;38.57;;;18.33;;
85093;SDS011;75432;49.056;12.004;2024-03-07T07:18:26;37.73;;;18.20;;
85093;SDS011;75432;49.056;12.004;2024-03-07T07:20:52;35.53;;;17.17;;
85093;SDS011;75432;49.056;12.004;2024-03-07T07:23:19;32.23;;;14.43;;
85093;SDS011;75432;49.056;12.004;2024-03-07T07:25:46;37.47;;;17.57;;
85093;SDS011;75432;49.056;12.004;2024-03-07T07:28:13;39.80;;;19.07;;
85093;SDS011;75432;49.056;12.004;2024-03-07T07:30:39;42.63;;;18.70;;
85093;SDS011;75432;49.056;12.004;2024-03-07T07:33:10;39.57;;;16.77;;
85093;SDS011;75432;49.056;12.004;2024-03-07T07:35:37;36.63;;;17.33;;
85093;SDS011;75432;49.056;12.004;2024-03-07T07:38:04;39.50;;;17.87;;
85093;SDS011;75432;49.056;12.004;2024-03-07T07:40:33;35.87;;;17.43;;
85093;SDS011;75432;49.056;12.004;2024-03-07T07:42:59;30.57;;;14.83;;
85093;SDS011;75432;49.056;12.004;2024-03-07T07:45:27;31.77;;;15.87;;
85093;SDS011;75432;49.056;12.004;2024-03-07T07:47:54;34.47;;;16.13;;
85093;SDS011;75432;49.056;12.004;2024-03-07T07:50:22;36.10;;;17.33;;
85093;SDS011;75432;49.056;12.004;2024-03-07T07:55:23;37.43;;;16.33;;
85093;SDS011;75432;49.056;12.004;2024-03-07T07:57:52;31.90;;;16.00;;
85093;SDS011;75432;49.056;12.004;2024-03-07T08:00:21;38.23;;;17.60;;
85093;SDS011;75432;49.056;12.004;2024-03-07T08:02:53;30.50;;;14.57;;
85093;SDS011;75432;49.056;12.004;2024-03-07T08:05:22;41.83;;;17.47;;
85093;SDS011;75432;49.056;12.004;2024-03-07T08:07:54;37.33;;;16.10;;
85093;SDS011;75432;49.056;12.004;2024-03-07T08:10:23;40.63;;;17.97;;
85093;SDS011;75432;49.056;12.004;2024-03-07T08:12:52;36.00;;;16.03;;
85093;SDS011;75432;49.056;12.004;2024-03-07T08:15:19;31.43;;;15.00;;
85093;SDS011;75432;49.056;12.004;2024-03-07T08:17:46;31.53;;;14.80;;
85093;SDS011;75432;49.056;12.004;2024-03-07T08:20:15;34.60;;;16.57;;
85093;SDS011;75432;49.056;12.004;2024-03-07T08:22:42;40.10;;;18.67;;
85093;SDS011;75432;49.056;12.004;2024-03-07T08:25:14;38.23;;;15.47;;
85093;SDS011;75432;49.056;12.004;2024-03-07T08:27:42;40.83;;;18.30;;
85093;SDS011;75432;49.056;12.004;2024-03-07T08:30:10;33.40;;;15.10;;
85093;SDS011;75432;49.056;12.004;2024-03-07T08:35:11;36.07;;;14.77;;
85093;SDS011;75432;49.056;12.004;2024-03-07T08:37:38;36.20;;;16.70;;
85093;SDS011;75432;49.056;12.004;2024-03-07T08:40:06;39.67;;;16.17;;
85093;SDS011;75432;49.056;12.004;2024-03-07T08:42:42;35.30;;;16.03;;
85093;SDS011;75432;49.056;12.004;2024-03-07T08:45:08;39.40;;;16.77;;
85093;SDS011;75432;49.056;12.004;2024-03-07T08:47:37;33.57;;;15.77;;
85093;SDS011;75432;49.056;12.004;2024-03-07T08:50:04;38.23;;;16.50;;
85093;SDS011;75432;49.056;12.004;2024-03-07T08:52:35;33.33;;;15.57;;
85093;SDS011;75432;49.056;12.004;2024-03-07T08:55:06;36.13;;;16.27;;
85093;SDS011;75432;49.056;12.004;2024-03-07T08:57:37;36.63;;;16.47;;
85093;SDS011;75432;49.056;12.004;2024-03-07T09:00:05;40.40;;;16.80;;
85093;SDS011;75432;49.056;12.004;2024-03-07T09:02:49;32.50;;;13.60;;
85093;SDS011;75432;49.056;12.004;2024-03-07T09:05:20;36.80;;;15.93;;
85093;SDS011;75432;49.056;12.004;2024-03-07T09:07:48;34.63;;;16.60;;
85093;SDS011;75432;49.056;12.004;2024-03-07T09:10:16;35.33;;;15.37;;
85093;SDS011;75432;49.056;12.004;2024-03-07T09:12:43;32.83;;;15.53;;
85093;SDS011;75432;49.056;12.004;2024-03-07T09:15:11;32.93;;;14.87;;
85093;SDS011;75432;49.056;12.004;2024-03-07T09:17:38;37.40;;;16.17;;
85093;SDS011;75432;49.056;12.004;2024-03-07T09:20:05;42.93;;;18.50;;
85093;SDS011;75432;49.056;12.004;2024-03-07T09:22:36;36.97;;;16.13;;
85093;SDS011;75432;49.056;12.004;2024-03-07T09:25:06;37.43;;;16.27;;
85093;SDS011;75432;49.056;12.004;2024-03-07T09:27:33;36.73;;;16.60;;
85093;SDS011;75432;49.056;12.004;2024-03-07T09:30:00;36.30;;;17.07;;
85093;SDS011;75432;49.056;12.004;2024-03-07T09:32:26;31.57;;;15.10;;
85093;SDS011;75432;49.056;12.004;2024-03-07T09:34:59;39.73;;;16.93;;
85093;SDS011;75432;49.056;12.004;2024-03-07T09:37:27;34.87;;;16.00;;
85093;SDS011;75432;49.056;12.004;2024-03-07T09:39:53;33.37;;;16.30;;
85093;SDS011;75432;49.056;12.004;2024-03-07T09:42:20;34.27;;;15.17;;
85093;SDS011;75432;49.056;12.004;2024-03-07T09:44:48;38.97;;;16.17;;
85093;SDS011;75432;49.056;12.004;2024-03-07T09:47:20;37.17;;;16.33;;
85093;SDS011;75432;49.056;12.004;2024-03-07T09:49:46;31.20;;;14.80;;
85093;SDS011;75432;49.056;12.004;2024-03-07T09:52:13;31.67;;;15.37;;
85093;SDS011;75432;49.056;12.004;2024-03-07T09:54:41;34.23;;;14.60;;
85093;SDS011;75432;49.056;12.004;2024-03-07T09:57:08;31.17;;;14.07;;
85093;SDS011;75432;49.056;12.004;2024-03-07T09:59:37;30.70;;;14.07;;
85093;SDS011;75432;49.056;12.004;2024-03-07T10:02:06;26.80;;;12.97;;
85093;SDS011;75432;49.056;12.004;2024-03-07T10:04:37;32.37;;;14.73;;
85093;SDS011;75432;49.056;12.004;2024-03-07T10:07:07;26.13;;;12.77;;
85093;SDS011;75432;49.056;12.004;2024-03-07T10:09:38;28.40;;;13.63;;
85093;SDS011;75432;49.056;12.004;2024-03-07T10:12:06;27.43;;;13.17;;
85093;SDS011;75432;49.056;12.004;2024-03-07T10:14:36;24.80;;;12.30;;
85093;SDS011;75432;49.056;12.004;2024-03-07T10:17:05;30.03;;;14.23;;
85093;SDS011;75432;49.056;12.004;2024-03-07T10:19:32;26.60;;;13.67;;
85093;SDS011;75432;49.056;12.004;2024-03-07T10:21:59;25.70;;;12.80;;
85093;SDS011;75432;49.056;12.004;2024-03-07T10:24:28;27.50;;;13.10;;
85093;SDS011;75432;49.056;12.004;2024-03-07T10:26:54;26.17;;;12.50;;
85093;SDS011;75432;49.056;12.004;2024-03-07T10:29:24;28.50;;;13.67;;
85093;SDS011;75432;49.056;12.004;2024-03-07T10:31:51;22.90;;;12.27;;
85093;SDS011;75432;49.056;12.004;2024-03-07T10:34:33;20.70;;;10.90;;
85093;SDS011;75432;49.056;12.004;2024-03-07T10:37:00;24.17;;;11.97;;
85093;SDS011;75432;49.056;12.004;2024-03-07T10:39:30;19.10;;;10.20;;
85093;SDS011;75432;49.056;12.004;2024-03-07T10:41:57;23.13;;;11.63;;
85093;SDS011;75432;49.056;12.004;2024-03-07T10:44:32;22.70;;;11.90;;
85093;SDS011;75432;49.056;12.004;2024-03-07T10:47:07;23.83;;;12.17;;
85093;SDS011;75432;49.056;12.004;2024-03-07T10:49:38;24.87;;;12.77;;
85093;SDS011;75432;49.056;12.004;2024-03-07T10:52:40;23.57;;;11.00;;
85093;SDS011;75432;49.056;12.004;2024-03-07T10:55:08;21.30;;;11.57;;
85093;SDS011;75432;49.056;12.004;2024-03-07T10:57:51;20.47;;;10.83;;
85093;SDS011;75432;49.056;12.004;2024-03-07T11:00:22;23.70;;;11.40;;
85093;SDS011;75432;49.056;12.004;2024-03-07T11:03:09;23.02;;;10.93;;
85093;SDS011;75432;49.056;12.004;2024-03-07T11:05:37;17.70;;;10.17;;
85093;SDS011;75432;49.056;12.004;2024-03-07T11:08:06;18.52;;;10.90;;
85093;SDS011;75432;49.056;12.004;2024-03-07T11:10:38;24.70;;;12.10;;
85093;SDS011;75432;49.056;12.004;2024-03-07T11:13:06;20.23;;;11.30;;
85093;SDS011;75432;49.056;12.004;2024-03-07T11:15:40;19.63;;;10.27;;
85093;SDS011;75432;49.056;12.004;2024-03-07T11:18:09;20.23;;;10.93;;
85093;SDS011;75432;49.056;12.004;2024-03-07T11:20:39;18.38;;;10.38;;
85093;SDS011;75432;49.056;12.004;2024-03-07T11:28:36;17.23;;;9.60;;
85093;SDS011;75432;49.056;12.004;2024-03-07T11:31:12;19.67;;;10.77;;
85093;SDS011;75432;49.056;12.004;2024-03-07T11:34:16;19.80;;;10.05;;
85093;SDS011;75432;49.056;12.004;2024-03-07T11:36:46;18.97;;;10.77;;
85093;SDS011;75432;49.056;12.004;2024-03-07T11:42:19;19.95;;;10.10;;
85093;SDS011;75432;49.056;12.004;2024-03-07T11:44:55;19.42;;;10.77;;
85093;SDS011;75432;49.056;12.004;2024-03-07T11:47:24;20.23;;;10.43;;
85093;SDS011;75432;49.056;12.004;2024-03-07T11:49:55;18.20;;;9.95;;
85093;SDS011;75432;49.056;12.004;2024-03-07T11:52:24;15.80;;;9.50;;
85093;SDS011;75432;49.056;12.004;2024-03-07T11:54:50;17.60;;;10.13;;
85093;SDS011;75432;49.056;12.004;2024-03-07T11:57:18;19.10;;;10.80;;
85093;SDS011;75432;49.056;12.004;2024-03-07T11:59:47;17.88;;;11.35;;
85093;SDS011;75432;49.056;12.004;2024-03-07T12:02:19;19.73;;;11.40;;
85093;SDS011;75432;49.056;12.004;2024-03-07T12:04:49;18.25;;;10.57;;
85093;SDS011;75432;49.056;12.004;2024-03-07T12:07:19;17.20;;;9.95;;
85093;SDS011;75432;49.056;12.004;2024-03-07T12:09:49;19.40;;;11.00;;
85093;SDS011;75432;49.056;12.004;2024-03-07T12:12:20;25.77;;;12.55;;
85093;SDS011;75432;49.056;12.004;2024-03-07T12:14:54;15.82;;;9.15;;
85093;SDS011;75432;49.056;12.004;2024-03-07T12:17:21;16.10;;;9.00;;
85093;SDS011;75432;49.056;12.004;2024-03-07T12:19:49;20.83;;;11.15;;
85093;SDS011;75432;49.056;12.004;2024-03-07T12:22:20;16.30;;;9.50;;
85093;SDS011;75432;49.056;12.004;2024-03-07T12:25:00;14.55;;;9.65;;
85093;SDS011;75432;49.056;12.004;2024-03-07T12:27:35;18.77;;;10.73;;
85093;SDS011;75432;49.056;12.004;2024-03-07T12:30:14;20.67;;;12.10;;
85093;SDS011;75432;49.056;12.004;2024-03-07T12:32:52;20.85;;;11.55;;
85093;SDS011;75432;49.056;12.004;2024-03-07T12:35:19;22.73;;;10.95;;
85093;SDS011;75432;49.056;12.004;2024-03-07T12:37:45;20.42;;;10.63;;
85093;SDS011;75432;49.056;12.004;2024-03-07T12:40:12;17.63;;;10.45;;
85093;SDS011;75432;49.056;12.004;2024-03-07T12:42:46;16.52;;;9.48;;
85093;SDS011;75432;49.056;12.004;2024-03-07T12:45:15;17.05;;;9.25;;
85093;SDS011;75432;49.056;12.004;2024-03-07T12:47:45;17.63;;;9.90;;
85093;SDS011;75432;49.056;12.004;2024-03-07T12:50:19;16.73;;;9.23;;
85093;SDS011;75432;49.056;12.004;2024-03-07T12:52:47;18.92;;;10.63;;
85093;SDS011;75432;49.056;12.004;2024-03-07T12:55:18;18.38;;;9.70;;
85093;SDS011;75432;49.056;12.004;2024-03-07T12:57:47;16.30;;;8.98;;
85093;SDS011;75432;49.056;12.004;2024-03-07T13:00:16;16.02;;;8.98;;
85093;SDS011;75432;49.056;12.004;2024-03-07T13:02:47;20.08;;;10.73;;
85093;SDS011;75432;49.056;12.004;2024-03-07T13:05:14;18.60;;;9.55;;
85093;SDS011;75432;49.056;12.004;2024-03-07T13:07:52;16.25;;;10.02;;
85093;SDS011;75432;49.056;12.004;2024-03-07T13:10:19;16.20;;;9.55;;
85093;SDS011;75432;49.056;12.004;2024-03-07T13:12:47;15.57;;;9.05;;
85093;SDS011;75432;49.056;12.004;2024-03-07T13:15:18;18.48;;;9.93;;
85093;SDS011;75432;49.056;12.004;2024-03-07T13:17:48;16.10;;;9.13;;
85093;SDS011;75432;49.056;12.004;2024-03-07T13:20:19;16.13;;;9.13;;
85093;SDS011;75432;49.056;12.004;2024-03-07T13:22:48;17.42;;;10.68;;
85093;SDS011;75432;49.056;12.004;2024-03-07T13:25:16;17.93;;;10.37;;
85093;SDS011;75432;49.056;12.004;2024-03-07T13:27:50;18.27;;;10.60;;
85093;SDS011;75432;49.056;12.004;2024-03-07T13:30:22;19.02;;;10.00;;
85093;SDS011;75432;49.056;12.004;2024-03-07T13:32:53;17.27;;;10.45;;
85093;SDS011;75432;49.056;12.004;2024-03-07T13:35:24;17.40;;;10.05;;
85093;SDS011;75432;49.056;12.004;2024-03-07T13:37:52;20.50;;;11.40;;
85093;SDS011;75432;49.056;12.004;2024-03-07T13:40:23;17.13;;;10.67;;
85093;SDS011;75432;49.056;12.004;2024-03-07T13:42:55;19.67;;;10.37;;
85093;SDS011;75432;49.056;12.004;2024-03-07T13:45:23;18.70;;;10.52;;
85093;SDS011;75432;49.056;12.004;2024-03-07T13:47:53;22.50;;;11.25;;
85093;SDS011;75432;49.056;12.004;2024-03-07T13:50:25;18.70;;;10.63;;
85093;SDS011;75432;49.056;12.004;2024-03-07T13:53:17;21.07;;;10.77;;
85093;SDS011;75432;49.056;12.004;2024-03-07T13:58:50;18.43;;;10.70;;
85093;SDS011;75432;49.056;12.004;2024-03-07T14:01:41;22.63;;;11.63;;
85093;SDS011;75432;49.056;12.004;2024-03-07T14:09:32;20.77;;;10.33;;
85093;SDS011;75432;49.056;12.004;2024-03-07T14:29:44;18.13;;;10.17;;
85093;SDS011;75432;49.056;12.004;2024-03-07T14:32:19;19.63;;;10.87;;
85093;SDS011;75432;49.056;12.004;2024-03-07T14:35:13;20.50;;;10.97;;
85093;SDS011;75432;49.056;12.004;2024-03-07T14:40:48;22.20;;;10.60;;
85093;SDS011;75432;49.056;12.004;2024-03-07T14:43:16;22.83;;;10.83;;
85093;SDS011;75432;49.056;12.004;2024-03-07T14:45:45;19.10;;;10.30;;
85093;SDS011;75432;49.056;12.004;2024-03-07T14:48:14;18.50;;;10.27;;
85093;SDS011;75432;49.056;12.004;2024-03-07T14:50:45;24.23;;;11.87;;
85093;SDS011;75432;49.056;12.004;2024-03-07T14:53:12;18.97;;;10.33;;
85093;SDS011;75432;49.056;12.004;2024-03-07T14:55:43;19.70;;;10.27;;
85093;SDS011;75432;49.056;12.004;2024-03-07T14:58:09;18.20;;;10.97;;
85093;SDS011;75432;49.056;12.004;2024-03-07T15:00:39;21.77;;;11.37;;
85093;SDS011;75432;49.056;12.004;2024-03-07T15:03:24;24.93;;;11.77;;